TOURFACTS.DK  
Stats and Facts from Tour de France.

Tour de France 2019 starts in 348 days
  Riders   Stages   Teams   Summits   Yearly  


 
Search by year

After 2018 - Stage 14:
 15000 starters.
  5163 different riders.
  639 teams.
  2246 stages.
  456 restdays.
  441957.60 km.
  5678 abandonnees.


Top 3
GC
Christopher Froome86:20:55
Rigoberto Urán86:21:49
Romain Bardet86:23:15
Climb
Warren Barguil169 pt.
Primoz Roglic80 pt.
Thomas De Gendt64 pt.
Sprint
Michael Matthews359 pt.
André Greipel234 pt.
Edvald Boasson Hagen220 pt.
Youth
Simon Yates86:27:09
Louis Meintjes86:29:15
Emanuel Buchmann86:54:16
Facts from Tour de France 1935
  |   Stages.  |   Stage winners.  |   Days in yellow  |   Average speed.  |   Route.  |   Teams.  |   All riders.  |   Rookies.  |  

  |   Withdrawls.  |   GC.  |   Polka  |   Green  |   White  |   Summits. (In tour)  |   Miscellaneous.  |  

Stage 8 on July 12th. 1935
         Owning:    Romain Maes    
Pick a stage:  1 2 3 4 5a 5b 6 7 8 9 10 11 12 13a 13b 14a 14b 15 16 17 18a 18b 19a 19b 20a 20b 21
From: Grenoble    To: GapDist:102.00 km.
Cat: Côte de LaffreyFRAGabriel Ruozzi
10 points
 

Average speed for all riders in stage:  28,343 km./hr.
    Place:Name:Team:Time:Km/h:
BELJean AertsBELBelgium03:24:07  +  00:00:00=29,983 
FRAGabriel RuozziTouristes Routiers03:24:07  +  00:00:00=29,983 
BELFélicien VervaeckeBELBelgium03:24:15  +  00:00:08=29,963 
4 FRAGeorges SpeicherFRAFrance03:25:43  +  00:01:36=29,750 
5 BELJules LowieBELBelgium B03:25:54  +  00:01:47=29,723 
6 FRAPierre-Marie CloarecTouristes Routiers03:26:18  +  00:02:11=29,666 
7 FRAMaurice ArchambaudFRAFrance03:26:18  +  00:02:11=29,666 
8 ITAFrancesco CamussoITAItaly03:27:10  +  00:03:03=29,541 
9 FRAJean FontenayFRAFrance B03:28:02  +  00:03:55=29,418 
10 FRARené ViettoFRAFrance03:28:08  +  00:04:01=29,404 
11 BELSylvère MaesBELBelgium B03:28:27  +  00:04:20=29,360 
12 FRARené BernardTouristes Routiers03:28:27  +  00:04:20=29,360 
13 ITAAmbrogio MorelliITACadetti Italiens03:28:27  +  00:04:20=29,360 
14 FRARené Le GrevesFRAFrance03:28:27  +  00:04:20=29,360 
15 BELRomain MaesBELBelgium03:28:27  +  00:04:20=29,360 
16 ITADante GianelloTouristes Routiers03:28:51  +  00:04:44=29,303 
17 FRAPierre CoganTouristes Routiers03:28:51  +  00:04:44=29,303 
18 FRAGeorges HubatzTouristes Routiers03:28:51  +  00:04:44=29,303 
19 FRARoger LapebieFRAFrance B03:29:08  +  00:05:01=29,264 
20 FRACharles PelissierFRAFrance B03:29:08  +  00:05:01=29,264 
21 GEROskar ThierbachDEUGermany03:29:21  +  00:05:14=29,233 
22 FRAFernand FayolleTouristes Routiers03:29:29  +  00:05:22=29,215 
23 ITAPietro RimoldiITACadetti Italiens03:29:29  +  00:05:22=29,215 
24 ITAVasco BergamaschiITAItaly03:29:29  +  00:05:22=29,215 
25 BELAntoine DignefBELBelgium B03:29:29  +  00:05:22=29,215 
26 ITAAldo BertoccoTouristes Routiers03:30:04  +  00:05:57=29,134 
27 GERGeorg UmbenhauerDEUGermany03:31:28  +  00:07:21=28,941 
28 FRALouis ThiétardTouristes Routiers03:32:30  +  00:08:23=28,800 
29 FRAGeorges LachatTouristes Routiers03:33:56  +  00:09:49=28,607 
30 GERAnton HodeyDEUGermany03:34:14  +  00:10:07=28,567 
31 ESPThéodore LadronTouristes Routiers03:34:30  +  00:10:23=28,531 
32 ITARafaële Di PacoITAItaly03:35:15  +  00:11:08=28,432 
33 GEROtto WeckerlingDEUGermany03:35:15  +  00:11:08=28,432 
34 SUIFritz HartmannCHESwitzerland03:35:45  +  00:11:38=28,366 
35 GERBruno RothDEUGermany B03:35:59  +  00:11:52=28,336 
36 ITAOrlando TeaniITACadetti Italiens03:35:59  +  00:11:52=28,336 
37 ITALuigi GiacobbeITAItaly03:36:21  +  00:12:14=28,287 
38 FRAAndré LeducqFRAFrance03:36:40  +  00:12:33=28,246 
39 FRAJulien MoineauFRAFrance B03:36:40  +  00:12:33=28,246 
40 FRAJules MervielFRAFrance03:36:40  +  00:12:33=28,246 
41 FRABenoit FaureTouristes Routiers03:36:40  +  00:12:33=28,246 
42 SUILéo AmbergCHESwitzerland03:36:49  +  00:12:42=28,227 
43 FRAHonore GranierTouristes Routiers03:37:03  +  00:12:56=28,196 
44 FRAPaul ChocqueTouristes Routiers03:37:11  +  00:13:04=28,179 
45 FRARobert RenonceTouristes Routiers03:38:50  +  00:14:43=27,966 
46 FRAJoseph MauclairTouristes Routiers03:39:55  +  00:15:48=27,829 
47 BELLouis HardiquestBELBelgium03:41:09  +  00:17:02=27,674 
48 GERWilly KutschbachDEUGermany03:41:09  +  00:17:02=27,674 
49 BELFrançois NeuvilleBELBelgium B03:41:58  +  00:17:51=27,572 
50 GERGeorg StachDEUGermany B03:42:11  +  00:18:04=27,545 
51 GEREmil KijewskiDEUGermany03:42:11  +  00:18:04=27,545 
52 GERGeorge HaendelDEUGermany B03:42:11  +  00:18:04=27,545 
53 ESPAntonio PriorESPSpain03:42:50  +  00:18:43=27,464 
54 ITAOreste BernardoniTouristes Routiers03:43:10  +  00:19:03=27,423 
55 SUIKurt StettlerCHESwitzerland03:44:00  +  00:19:53=27,321 
56 ESPDemetrio VicenteESPSpain B03:44:17  +  00:20:10=27,287 
57 FRACharles BertyTouristes Routiers03:45:48  +  00:21:41=27,104 
58 ESPSalvador CardonaESPSpain03:47:07  +  00:23:00=26,947 
59 GERFerdinand IckesDEUGermany B03:48:19  +  00:24:12=26,805 
60 ESPManuel GarciaTouristes Routiers03:48:19  +  00:24:12=26,805 
61 FRAClément BistagneTouristes Routiers03:48:42  +  00:24:35=26,760 
62 ESPVicente BacheroESPSpain B03:48:45  +  00:24:38=26,754 
63 ESPEmiliano AlvarezESPSpain03:49:06  +  00:24:59=26,713 
64 BELEdgard De CaluweBELBelgium03:49:38  +  00:25:31=26,651 
65 BELHenri GarnierBELBelgium03:59:08  +  00:35:01=25,592 
66 FRARené DebenneFRAFrance03:59:08  +  00:35:01=25,592 

Withdrawls: 3
 
Rider
Team
Reason
11  ITARemo BertoniITAItalyDid not finish
32  GERKarl HeideDEUGermanyDid not finish
115  FRAMaurice PomarèdeTouristes RoutiersDid not finish

Todays birthdays.

1877  Antoine Perrichon
1878  Auguste Berthault
1911  Théo Herckenrath
1924  Carlo Lafranchi
1931  Armand Di Caro
1937  Jean-Claude Lebaube
1951  Giovanni Battaglin
1961  Pascal Jules
1962  Jean-Claude Leclercq
1976  Janek Tombak
1978  Francisco Pérez
1983  Dries Devenyns




Visits: